TAF Text Data
IDs:
Format:
Raw Decoded Include METAR

Data at: 0601 UTC 19 Aug 2019

KDVN 190552Z AUTO 16003KT 10SM BKN075 22/20 A2994 RMK AO2 SLP131 T02170200 10272 20217 402830183 53009


KMLI 190552Z AUTO 00000KT 10SM OVC080 22/19 A2992 RMK AO2 SLP129 T02170194 10278 20217 402940200 53009

KMLI 190520Z 1906/2006 VRB03KT P6SM BKN050
  FM191000 02005KT 4SM BR BKN025
  FM191600 05007KT P6SM BKN030
  FM192300 08003KT P6SM SKC